Arbon, Idaho
Current Conditions -  °F | °C
As of 9:53 AM on Saturday 25 Oct 2014 (Local Time) from KPIH Reporting Station
Clear Clear  
Wind Chill: 68°   Ceiling: Unl
Heat Index: 68°   Visibility: 10mi
Dew Point: 30°   Wind: 18mph
Humidity: 24%   Direction: 180°S
Pressure: 30"   Gusts: 26mph
Location:  42.46°N, 112.57°W
Report Text: KPIH 251553Z 18016G23KT 10SM CLR 20/M01 A3000 RMK AO2 SLP120 T02001011
Loading
Personal Weather Stations






























Interactive Weather Map
Tropical Storm Tracking
New forecast layout! Learn more

10-Day Weather Forecast

Advertisements
Track Severe Weather on mobile